Time;durP1;ratioP1;P1;durP2;ratioP2;P2;SDS_P1;SDS_P2;PMS_P1;PMS_P2;Temp;Humidity;BMP_temperature;BMP_pressure;BME280_temperature;BME280_humidity;BME280_pressure;Samples;Min_cycle;Max_cycle;Signal;HPM_P1;HPM_P2
2022/01/11 00:00:35;;;;;;;88.07;22.40;;;;;;;-2.61;100.00;146788.53;5116464;28;21010;-67
2022/01/11 00:03:02;;;;;;;111.60;23.00;;;;;;;-2.62;100.00;146785.97;5116307;27;20272;-67
2022/01/11 00:05:35;;;;;;;96.23;22.43;;;;;;;-2.62;100.00;146785.97;5118586;27;20733;-67
2022/01/11 00:08:00;;;;;;;62.33;20.70;;;;;;;-2.63;100.00;146783.44;5118376;27;20813;-68
2022/01/11 00:10:38;;;;;;;78.67;21.30;;;;;;;-2.65;100.00;146778.31;5111792;27;20272;-68
2022/01/11 00:13:04;;;;;;;93.77;21.97;;;;;;;-2.71;100.00;146762.94;5120544;27;20035;-67
2022/01/11 00:15:30;;;;;;;84.97;22.60;;;;;;;-2.78;100.00;146745.06;5116558;27;20602;-67
2022/01/11 00:17:57;;;;;;;79.17;20.60;;;;;;;-2.81;100.00;146738.63;5119815;27;20027;-68
2022/01/11 00:20:28;;;;;;;154.90;26.23;;;;;;;-2.80;100.00;146739.91;5119298;27;20286;-67
2022/01/11 00:25:45;;;;;;;118.53;23.10;;;;;;;-2.69;100.00;146768.03;5074111;27;20308;-68
2022/01/11 00:28:12;;;;;;;124.17;27.53;;;;;;;-2.67;100.00;146773.16;5118078;27;20670;-67
2022/01/11 00:30:40;;;;;;;84.00;21.93;;;;;;;-2.64;100.00;146780.88;5117838;27;20764;-68
2022/01/11 00:33:11;;;;;;;111.43;23.13;;;;;;;-2.68;100.00;146770.59;5121765;27;20297;-68
2022/01/11 00:35:42;;;;;;;100.57;22.20;;;;;;;-2.74;100.00;146756.53;5118564;27;20265;-68
2022/01/11 00:38:09;;;;;;;98.75;23.30;;;;;;;-2.77;100.00;146747.59;5118618;27;20273;-67
2022/01/11 00:40:35;;;;;;;92.43;21.53;;;;;;;-2.82;100.00;146734.78;5117272;27;20042;-68
2022/01/11 00:43:00;;;;;;;72.30;22.47;;;;;;;-2.81;100.00;146737.34;5120399;27;20689;-68
2022/01/11 00:45:27;;;;;;;88.70;22.50;;;;;;;-2.85;100.00;146727.13;5116387;27;20498;-67
2022/01/11 00:47:56;;;;;;;109.70;23.63;;;;;;;-2.91;100.00;146711.75;5120418;27;20059;-68
2022/01/11 00:50:21;;;;;;;117.40;23.73;;;;;;;-2.91;100.00;146711.75;5118799;27;20308;-68
2022/01/11 00:52:47;;;;;;;101.43;22.10;;;;;;;-2.90;100.00;146715.63;5118742;27;20328;-68
2022/01/11 00:55:13;;;;;;;103.67;22.90;;;;;;;-2.88;100.00;146720.72;5120302;27;20390;-68
2022/01/11 00:57:38;;;;;;;73.93;21.63;;;;;;;-2.89;100.00;146716.91;5120458;27;20045;-67
2022/01/11 01:00:08;;;;;;;73.60;21.07;;;;;;;-2.90;100.00;146715.63;5121583;27;20269;-68
2022/01/11 01:02:34;;;;;;;74.10;21.33;;;;;;;-2.91;100.00;146711.75;5116962;27;20412;-70
2022/01/11 01:05:01;;;;;;;90.73;21.53;;;;;;;-2.92;100.00;146709.19;5106217;27;20930;-67
2022/01/11 01:07:26;;;;;;;61.93;18.43;;;;;;;-2.90;100.00;146715.63;5114533;27;20268;-67
2022/01/11 01:10:20;;;;;;;70.07;21.07;;;;;;;-2.86;100.00;146724.56;5119771;27;20273;-68
2022/01/11 01:12:40;;;;;;;86.43;22.30;;;;;;;-2.85;100.00;146727.13;5118044;27;20031;-68
2022/01/11 01:15:07;;;;;;;99.40;22.07;;;;;;;-2.85;100.00;146728.38;5115962;27;20354;-68
2022/01/11 01:17:32;;;;;;;104.30;24.20;;;;;;;-2.84;100.00;146729.66;5120483;27;20019;-67
2022/01/11 01:19:58;;;;;;;119.07;23.97;;;;;;;-2.87;100.00;146722.00;5113360;27;20329;-68
2022/01/11 01:22:23;;;;;;;77.70;20.83;;;;;;;-2.85;100.00;146727.13;5117589;27;20057;-67
2022/01/11 01:24:49;;;;;;;150.23;25.97;;;;;;;-2.82;100.00;146736.06;5119823;27;20034;-67
2022/01/11 01:27:14;;;;;;;121.77;25.83;;;;;;;-2.82;100.00;146734.78;5115204;27;20023;-68
2022/01/11 01:29:41;;;;;;;64.47;20.70;;;;;;;-2.82;100.00;146734.78;5121979;27;20027;-67
2022/01/11 01:32:09;;;;;;;94.50;23.70;;;;;;;-2.84;100.00;146730.94;5120116;27;20024;-68
2022/01/11 01:34:35;;;;;;;106.30;22.87;;;;;;;-2.88;100.00;146719.44;5111400;27;20249;-67
2022/01/11 01:37:00;;;;;;;116.20;25.13;;;;;;;-2.86;100.00;146725.84;5119174;27;20279;-67
2022/01/11 01:39:26;;;;;;;131.07;24.93;;;;;;;-2.86;100.00;146725.84;5117487;27;20019;-67
2022/01/11 01:41:52;;;;;;;116.40;23.70;;;;;;;-2.83;100.00;146733.50;5115790;27;20129;-68
2022/01/11 01:44:18;;;;;;;138.90;26.37;;;;;;;-2.83;100.00;146732.22;5117166;27;20441;-68
2022/01/11 01:46:43;;;;;;;124.60;26.60;;;;;;;-2.82;100.00;146734.78;5112941;27;20265;-67
2022/01/11 01:49:15;;;;;;;99.60;24.03;;;;;;;-2.86;100.00;146724.56;5109906;27;20101;-67
2022/01/11 01:51:41;;;;;;;62.83;20.27;;;;;;;-2.83;100.00;146733.50;5115509;27;20031;-68
2022/01/11 01:54:07;;;;;;;91.70;22.70;;;;;;;-2.82;100.00;146734.78;5115347;27;20285;-67
2022/01/11 01:56:33;;;;;;;65.50;21.17;;;;;;;-2.85;100.00;146727.13;5115353;27;20019;-68
2022/01/11 01:58:59;;;;;;;102.83;23.03;;;;;;;-2.89;100.00;146718.19;5116400;27;20023;-67
2022/01/11 02:01:26;;;;;;;93.30;22.20;;;;;;;-2.89;100.00;146716.91;5119278;27;20325;-68
2022/01/11 02:03:51;;;;;;;118.33;24.47;;;;;;;-2.88;100.00;146720.72;5112897;27;20043;-67
2022/01/11 02:06:19;;;;;;;98.60;22.17;;;;;;;-2.87;100.00;146723.28;5114158;27;20300;-70
2022/01/11 02:08:46;;;;;;;119.83;25.43;;;;;;;-2.86;100.00;146724.56;5117630;27;20027;-68
2022/01/11 02:11:15;;;;;;;132.33;26.30;;;;;;;-2.85;100.00;146727.13;5112522;27;20310;-67
2022/01/11 02:13:41;;;;;;;95.73;22.77;;;;;;;-2.87;100.00;146723.28;5114473;27;20261;-68
2022/01/11 02:16:06;;;;;;;104.63;23.43;;;;;;;-2.89;100.00;146718.19;5121172;27;20277;-68
2022/01/11 02:18:32;;;;;;;124.50;24.33;;;;;;;-2.92;100.00;146709.19;5112912;27;20107;-68
2022/01/11 02:20:59;;;;;;;99.87;24.37;;;;;;;-2.91;100.00;146711.75;5120057;27;20027;-67
2022/01/11 02:23:27;;;;;;;98.03;23.97;;;;;;;-2.91;100.00;146711.75;5116843;27;20026;-68
2022/01/11 02:25:52;;;;;;;104.77;24.37;;;;;;;-2.95;100.00;146704.06;5108828;27;20323;-68
2022/01/11 02:28:21;;;;;;;70.83;20.90;;;;;;;-2.90;100.00;146714.34;5115927;27;20300;-68
2022/01/11 02:30:47;;;;;;;79.03;20.80;;;;;;;-2.89;100.00;146718.19;5113347;27;20016;-68
2022/01/11 02:33:32;;;;;;;93.47;21.47;;;;;;;-2.92;100.00;146709.19;5116751;27;20986;-67
2022/01/11 02:35:58;;;;;;;81.57;21.70;;;;;;;-2.97;100.00;146698.97;5105790;27;20356;-67
2022/01/11 02:38:24;;;;;;;125.90;24.13;;;;;;;-2.99;100.00;146693.84;5094375;27;20261;-68
2022/01/11 02:40:49;;;;;;;82.37;21.07;;;;;;;-2.99;100.00;146693.84;5112842;27;20261;-68
2022/01/11 02:43:15;;;;;;;72.90;21.17;;;;;;;-3.01;100.00;146688.75;5115766;27;20019;-68
2022/01/11 02:45:40;;;;;;;70.53;20.13;;;;;;;-3.03;100.00;146683.63;5112433;27;20073;-68
2022/01/11 02:48:06;;;;;;;107.97;21.97;;;;;;;-3.01;100.00;146688.75;5113341;27;20618;-67
2022/01/11 02:50:31;;;;;;;94.93;22.87;;;;;;;-3.02;100.00;146684.91;5118127;27;20022;-68
2022/01/11 02:52:57;;;;;;;70.67;20.77;;;;;;;-3.02;100.00;146686.19;5116755;27;20035;-68
2022/01/11 02:55:22;;;;;;;75.63;19.57;;;;;;;-3.01;100.00;146688.75;5114892;27;20447;-68
2022/01/11 02:57:48;;;;;;;94.30;22.70;;;;;;;-3.03;100.00;146683.63;5112737;27;20026;-68
2022/01/11 03:00:16;;;;;;;64.53;21.27;;;;;;;-3.06;100.00;146675.94;5113809;27;20019;-68
2022/01/11 03:02:42;;;;;;;90.13;21.53;;;;;;;-3.04;100.00;146679.75;5118842;27;20023;-68
2022/01/11 03:05:10;;;;;;;73.77;20.60;;;;;;;-3.04;100.00;146681.03;5119023;27;20372;-68
2022/01/11 03:07:36;;;;;;;78.23;21.30;;;;;;;-3.00;100.00;146691.31;5110254;27;20031;-68
2022/01/11 03:10:14;;;;;;;71.33;20.90;;;;;;;-2.98;100.00;146696.41;5118379;27;20269;-68
2022/01/11 03:12:40;;;;;;;88.83;22.47;;;;;;;-2.93;100.00;146706.63;5111908;27;20695;-68
2022/01/11 03:15:06;;;;;;;79.23;22.13;;;;;;;-2.90;100.00;146714.34;5112675;27;20326;-68
2022/01/11 03:17:32;;;;;;;70.47;21.70;;;;;;;-2.86;100.00;146724.56;5115042;27;20268;-68
2022/01/11 03:19:57;;;;;;;80.23;21.70;;;;;;;-2.82;100.00;146734.78;5117764;28;20072;-68
2022/01/11 03:22:22;;;;;;;89.60;23.10;;;;;;;-2.82;100.00;146734.78;5109799;28;20121;-68
2022/01/11 03:24:48;;;;;;;112.90;24.37;;;;;;;-2.81;100.00;146737.34;5118781;28;20041;-68
2022/01/11 03:27:13;;;;;;;56.37;19.37;;;;;;;-2.80;100.00;146739.91;5112720;28;20037;-68
2022/01/11 03:29:40;;;;;;;128.87;25.90;;;;;;;-2.76;100.00;146750.16;5114959;28;20318;-68
2022/01/11 03:32:07;;;;;;;130.83;25.17;;;;;;;-2.79;100.00;146742.44;5112520;28;20072;-68
2022/01/11 03:34:32;;;;;;;122.97;26.20;;;;;;;-2.79;100.00;146742.44;5115338;28;20276;-68
2022/01/11 03:36:59;;;;;;;137.80;25.93;;;;;;;-2.75;100.00;146754.00;5114931;27;20315;-68
2022/01/11 03:39:25;;;;;;;136.87;25.87;;;;;;;-2.77;100.00;146748.88;5117942;27;20027;-68
2022/01/11 03:41:51;;;;;;;121.23;24.43;;;;;;;-2.77;100.00;146747.59;5117077;27;20272;-68
2022/01/11 03:44:16;;;;;;;189.60;28.67;;;;;;;-2.76;100.00;146751.44;5117711;27;20267;-68
2022/01/11 03:46:42;;;;;;;120.30;23.67;;;;;;;-2.75;100.00;146752.72;5115908;27;20024;-68
2022/01/11 03:49:07;;;;;;;69.03;19.37;;;;;;;-2.74;100.00;146755.28;5116681;27;20027;-68
2022/01/11 03:51:36;;;;;;;91.03;22.13;;;;;;;-2.76;100.00;146750.16;5115745;27;20058;-68
2022/01/11 03:54:11;;;;;;;113.10;23.57;;;;;;;-2.79;100.00;146742.44;5121164;27;20035;-68
2022/01/11 03:56:37;;;;;;;111.20;22.30;;;;;;;-2.87;100.00;146722.00;5122575;27;20271;-70
2022/01/11 03:59:06;;;;;;;80.97;21.17;;;;;;;-2.88;100.00;146719.44;5112330;27;20769;-70
2022/01/11 04:01:33;;;;;;;49.60;17.90;;;;;;;-2.87;100.00;146722.00;5117000;27;20100;-71
2022/01/11 04:03:58;;;;;;;53.07;19.10;;;;;;;-2.86;100.00;146724.56;5115126;27;21036;-70
2022/01/11 04:06:25;;;;;;;47.67;17.43;;;;;;;-2.91;100.00;146711.75;5123016;27;20320;-71
2022/01/11 04:08:51;;;;;;;83.57;19.83;;;;;;;-2.99;100.00;146693.84;5119315;27;20031;-70
2022/01/11 04:11:17;;;;;;;75.83;20.60;;;;;;;-3.01;100.00;146688.75;5118721;27;20344;-69
2022/01/11 04:13:43;;;;;;;52.53;19.73;;;;;;;-3.01;100.00;146688.75;5122983;27;20692;-72
2022/01/11 04:16:09;;;;;;;42.80;15.93;;;;;;;-2.97;100.00;146698.97;5124634;27;20023;-70
2022/01/11 04:18:35;;;;;;;54.40;18.93;;;;;;;-2.96;100.00;146701.53;5105987;27;20265;-71
2022/01/11 04:21:00;;;;;;;56.60;17.77;;;;;;;-3.00;100.00;146691.31;5124197;27;20498;-70
2022/01/11 04:23:26;;;;;;;78.40;19.43;;;;;;;-2.97;100.00;146697.69;5118710;27;20020;-70
2022/01/11 04:25:52;;;;;;;102.30;21.77;;;;;;;-2.95;100.00;146702.81;5122962;27;20022;-70
2022/01/11 04:28:17;;;;;;;105.87;22.93;;;;;;;-2.98;100.00;146695.13;5119369;27;20277;-72
2022/01/11 04:30:43;;;;;;;106.53;22.13;;;;;;;-2.97;100.00;146698.97;5116605;27;20624;-72
2022/01/11 04:33:09;;;;;;;83.13;20.13;;;;;;;-2.95;100.00;146704.06;5124068;27;20076;-72
2022/01/11 04:35:35;;;;;;;73.37;18.80;;;;;;;-2.89;100.00;146716.91;5120010;27;20019;-72
2022/01/11 04:38:00;;;;;;;118.20;23.20;;;;;;;-2.85;100.00;146728.38;5124589;27;20039;-69
2022/01/11 04:40:26;;;;;;;95.43;21.37;;;;;;;-2.78;100.00;146746.31;5122861;27;20276;-70
2022/01/11 04:42:52;;;;;;;52.37;16.83;;;;;;;-2.77;100.00;146747.59;5117281;27;20027;-70
2022/01/11 04:45:17;;;;;;;94.23;20.53;;;;;;;-2.85;100.00;146727.13;5116263;27;20526;-69
2022/01/11 04:47:45;;;;;;;102.83;20.73;;;;;;;-2.83;100.00;146732.22;5122365;27;20398;-72
2022/01/11 04:50:11;;;;;;;69.50;18.67;;;;;;;-2.77;100.00;146747.59;5120480;27;20459;-72
2022/01/11 04:52:37;;;;;;;84.00;19.10;;;;;;;-2.76;100.00;146751.44;5121721;27;20060;-72
2022/01/11 04:55:04;;;;;;;87.97;21.00;;;;;;;-2.75;100.00;146754.00;5118233;27;20277;-72
2022/01/11 04:57:29;;;;;;;101.10;22.07;;;;;;;-2.75;100.00;146754.00;5121139;27;20671;-72
2022/01/11 04:59:55;;;;;;;73.30;18.20;;;;;;;-2.85;100.00;146727.13;5123816;27;20284;-72
2022/01/11 05:02:20;;;;;;;74.80;18.73;;;;;;;-2.92;100.00;146709.19;5119487;27;20027;-72
2022/01/11 05:04:45;;;;;;;60.63;19.63;;;;;;;-2.91;100.00;146711.75;5121545;27;20043;-72
2022/01/11 05:07:11;;;;;;;43.23;16.10;;;;;;;-2.85;100.00;146728.38;5122186;27;20039;-72
2022/01/11 05:09:36;;;;;;;48.27;16.77;;;;;;;-2.80;100.00;146739.91;5123246;27;20426;-70
2022/01/11 05:12:02;;;;;;;82.50;20.07;;;;;;;-2.81;100.00;146738.63;5117773;27;20503;-70
2022/01/11 05:14:27;;;;;;;47.67;16.83;;;;;;;-2.72;100.00;146760.38;5121614;27;20475;-70
2022/01/11 05:16:53;;;;;;;95.53;21.07;;;;;;;-2.78;100.00;146746.31;5123013;27;20023;-70
2022/01/11 05:19:18;;;;;;;48.53;16.73;;;;;;;-2.73;100.00;146757.81;5119089;27;20019;-70
2022/01/11 05:21:44;;;;;;;86.43;20.90;;;;;;;-2.71;100.00;146762.94;5121414;27;20128;-70
2022/01/11 05:24:10;;;;;;;70.57;20.53;;;;;;;-2.66;100.00;146775.75;5123111;27;20361;-70
2022/01/11 05:26:35;;;;;;;86.37;19.27;;;;;;;-2.65;100.00;146778.31;5122895;27;20026;-70
2022/01/11 05:29:03;;;;;;;143.30;22.03;;;;;;;-2.64;100.00;146780.88;5120238;27;20280;-70
2022/01/11 05:31:28;;;;;;;107.97;22.47;;;;;;;-2.67;100.00;146773.16;5122636;27;20033;-69
2022/01/11 05:33:54;;;;;;;123.63;21.90;;;;;;;-2.65;100.00;146778.31;5122277;27;20273;-69
2022/01/11 05:36:19;;;;;;;142.13;24.40;;;;;;;-2.63;100.00;146782.16;5123285;27;20021;-70
2022/01/11 05:38:45;;;;;;;77.83;19.00;;;;;;;-2.66;100.00;146777.03;5122964;27;20023;-69
2022/01/11 05:41:11;;;;;;;113.27;21.87;;;;;;;-2.67;100.00;146773.16;5122578;27;20165;-69
2022/01/11 05:43:36;;;;;;;87.83;20.07;;;;;;;-2.65;100.00;146778.31;5115623;27;20685;-72
2022/01/11 05:46:03;;;;;;;75.03;19.30;;;;;;;-2.67;100.00;146773.16;5119172;27;20122;-69
2022/01/11 05:48:32;;;;;;;124.77;20.70;;;;;;;-2.71;100.00;146764.22;5120593;27;20019;-69
2022/01/11 05:50:59;;;;;;;69.50;18.13;;;;;;;-2.71;100.00;146764.22;5116768;27;20279;-70
2022/01/11 05:53:24;;;;;;;97.70;19.97;;;;;;;-2.71;100.00;146764.22;5115915;27;21207;-70
2022/01/11 05:55:50;;;;;;;81.30;19.73;;;;;;;-2.67;100.00;146774.44;5120425;27;20569;-70
2022/01/11 05:58:15;;;;;;;53.63;17.47;;;;;;;-2.63;100.00;146783.44;5118165;27;20076;-69
2022/01/11 06:00:41;;;;;;;48.43;16.27;;;;;;;-2.64;100.00;146780.88;5120795;27;20105;-72
2022/01/11 06:03:06;;;;;;;90.13;20.30;;;;;;;-2.68;100.00;146770.59;5116605;27;20104;-72
2022/01/11 06:05:37;;;;;;;38.33;15.40;;;;;;;-2.62;100.00;146785.97;5119284;27;20349;-72
2022/01/11 06:08:04;;;;;;;40.25;15.45;;;;;;;-2.68;100.00;146770.59;5122577;27;20049;-69
2022/01/11 06:10:30;;;;;;;63.57;19.20;;;;;;;-2.67;100.00;146773.16;5121159;27;20126;-69
2022/01/11 06:12:55;;;;;;;53.23;15.50;;;;;;;-2.71;100.00;146762.94;5121176;27;20273;-72
2022/01/11 06:15:21;;;;;;;79.50;19.20;;;;;;;-2.75;100.00;146754.00;5117952;27;20382;-72
2022/01/11 06:17:46;;;;;;;78.67;17.27;;;;;;;-2.87;100.00;146723.28;5109842;27;20019;-72
2022/01/11 06:20:12;;;;;;;88.70;18.07;;;;;;;-2.87;100.00;146722.00;5115775;27;20037;-72
2022/01/11 06:22:37;;;;;;;103.37;21.83;;;;;;;-2.92;100.00;146709.19;5122805;27;20456;-72
2022/01/11 06:25:04;;;;;;;80.57;22.10;;;;;;;-2.91;100.00;146711.75;5115831;27;20034;-72
2022/01/11 06:27:31;;;;;;;47.87;15.70;;;;;;;-2.90;100.00;146714.34;5122077;27;20023;-72
2022/01/11 06:29:56;;;;;;;63.70;17.30;;;;;;;-2.92;100.00;146709.19;5116867;27;20260;-72
2022/01/11 06:32:22;;;;;;;53.17;15.63;;;;;;;-2.86;100.00;146724.56;5120418;27;20275;-72
2022/01/11 06:34:47;;;;;;;65.70;18.00;;;;;;;-2.97;100.00;146698.97;5120402;27;20381;-69
2022/01/11 06:37:13;;;;;;;36.33;14.00;;;;;;;-2.91;100.00;146711.75;5121265;27;20027;-69
2022/01/11 06:39:39;;;;;;;34.70;14.20;;;;;;;-2.88;100.00;146720.72;5114496;27;20022;-72
2022/01/11 06:42:05;;;;;;;79.70;17.33;;;;;;;-2.98;100.00;146696.41;5121355;27;20852;-72
2022/01/11 06:44:32;;;;;;;36.50;15.47;;;;;;;-2.93;100.00;146707.91;5114890;27;20701;-69
2022/01/11 06:46:57;;;;;;;49.97;16.70;;;;;;;-3.05;100.00;146678.47;5122150;27;20675;-69
2022/01/11 06:49:23;;;;;;;59.73;14.97;;;;;;;-3.09;100.00;146668.25;5119964;27;20281;-69
2022/01/11 06:51:48;;;;;;;35.50;13.97;;;;;;;-3.14;100.00;146654.22;5111879;27;20019;-69
2022/01/11 06:54:14;;;;;;;41.07;14.03;;;;;;;-3.17;100.00;146646.50;5115798;27;20027;-72
2022/01/11 06:56:39;;;;;;;54.17;15.97;;;;;;;-3.17;100.00;146646.50;5121306;27;20014;-72
2022/01/11 06:59:05;;;;;;;35.53;15.67;;;;;;;-3.29;100.00;146618.38;5121648;27;20026;-72
2022/01/11 07:01:30;;;;;;;56.00;17.00;;;;;;;-3.36;100.00;146599.22;5117875;27;20027;-70
2022/01/11 07:03:56;;;;;;;36.23;15.40;;;;;;;-3.35;100.00;146601.75;5115968;27;20578;-70
2022/01/11 07:06:21;;;;;;;48.80;14.23;;;;;;;-3.40;100.00;146590.22;5120555;27;20027;-70
2022/01/11 07:08:46;;;;;;;47.83;15.77;;;;;;;-3.47;100.00;146571.06;5121273;27;20047;-70
2022/01/11 07:11:12;;;;;;;31.00;13.43;;;;;;;-3.51;100.00;146560.81;5120816;27;20027;-70
2022/01/11 07:13:38;;;;;;;39.57;14.60;;;;;;;-3.55;100.00;146551.88;5121209;27;20671;-71
2022/01/11 07:16:03;;;;;;;41.77;15.20;;;;;;;-3.60;100.00;146540.38;5119172;27;20033;-70
2022/01/11 07:18:29;;;;;;;43.87;14.43;;;;;;;-3.65;100.00;146527.56;5120178;28;20094;-70
2022/01/11 07:20:54;;;;;;;52.50;15.47;;;;;;;-3.68;100.00;146519.91;5120778;28;20114;-70
2022/01/11 07:23:20;;;;;;;48.17;15.03;;;;;;;-3.72;100.00;146509.72;5116000;28;20491;-70
2022/01/11 07:25:45;;;;;;;47.37;15.83;;;;;;;-3.69;100.00;146517.38;5113396;28;20027;-70
2022/01/11 07:28:12;;;;;;;37.53;13.00;;;;;;;-3.70;100.00;146514.81;5120541;28;20444;-70
2022/01/11 07:30:37;;;;;;;42.00;16.43;;;;;;;-3.66;100.00;146525.03;5119525;28;20062;-70
2022/01/11 07:33:03;;;;;;;45.10;15.77;;;;;;;-3.62;100.00;146535.28;5107476;28;20276;-70
2022/01/11 07:35:28;;;;;;;35.00;14.60;;;;;;;-3.62;100.00;146535.28;5121061;28;20015;-70
2022/01/11 07:37:54;;;;;;;38.53;14.83;;;;;;;-3.58;100.00;146545.50;5120799;28;20026;-70
2022/01/11 07:40:20;;;;;;;34.77;14.33;;;;;;;-3.50;100.00;146563.41;5117700;28;20049;-70
2022/01/11 07:42:46;;;;;;;35.83;13.30;;;;;;;-3.48;100.00;146569.78;5113973;28;20064;-70
2022/01/11 07:45:12;;;;;;;32.43;14.40;;;;;;;-3.50;100.00;146563.41;5118435;28;20280;-70
2022/01/11 07:47:37;;;;;;;47.87;15.00;;;;;;;-3.56;100.00;146550.59;5121417;28;20023;-70
2022/01/11 07:50:06;;;;;;;36.90;14.63;;;;;;;-3.60;100.00;146540.38;5117711;27;20280;-70
2022/01/11 07:52:32;;;;;;;33.03;13.43;;;;;;;-3.50;100.00;146564.69;5120324;28;20019;-70
2022/01/11 07:54:57;;;;;;;36.03;15.57;;;;;;;-3.52;100.00;146559.53;5119634;28;20279;-70
2022/01/11 07:57:23;;;;;;;38.97;15.07;;;;;;;-3.47;100.00;146572.34;5114499;28;20539;-70
2022/01/11 07:59:48;;;;;;;40.73;16.50;;;;;;;-3.46;100.00;146573.63;5105674;28;20273;-70
2022/01/11 08:02:14;;;;;;;64.47;15.97;;;;;;;-3.41;100.00;146587.66;5120630;28;20027;-70
2022/01/11 08:04:39;;;;;;;37.87;15.03;;;;;;;-3.43;100.00;146582.56;5110936;28;20545;-70
2022/01/11 08:07:04;;;;;;;36.00;15.83;;;;;;;-3.34;100.00;146605.59;5121041;28;20019;-70
2022/01/11 08:09:30;;;;;;;37.67;14.50;;;;;;;-3.31;100.00;146611.97;5120551;28;20027;-70
2022/01/11 08:11:58;;;;;;;41.00;16.20;;;;;;;-3.28;100.00;146620.91;5121397;28;20034;-70
2022/01/11 08:14:24;;;;;;;41.97;14.13;;;;;;;-3.21;100.00;146637.56;5120746;28;20129;-70
2022/01/11 08:16:49;;;;;;;36.63;14.13;;;;;;;-3.06;100.00;146675.94;5121251;28;20362;-70
2022/01/11 08:19:15;;;;;;;43.67;16.67;;;;;;;-2.81;100.00;146737.34;5120119;28;20111;-70
2022/01/11 08:21:41;;;;;;;37.77;15.23;;;;;;;-2.68;100.00;146770.59;5121394;28;20042;-70
2022/01/11 08:24:06;;;;;;;44.27;18.10;;;;;;;-2.38;100.00;146846.13;5121630;27;20774;-70
2022/01/11 08:26:32;;;;;;;36.17;17.10;;;;;;;-1.98;100.00;146947.28;5124620;27;20019;-70
2022/01/11 08:28:57;;;;;;;36.37;15.67;;;;;;;-1.51;100.00;147065.09;5118810;27;20031;-70
2022/01/11 08:31:23;;;;;;;91.73;19.17;;;;;;;-0.99;100.00;147195.81;5122874;27;20421;-70
2022/01/11 08:33:48;;;;;;;57.43;15.30;;;;;;;-0.64;100.00;147284.25;5112450;27;20080;-70
2022/01/11 08:36:14;;;;;;;29.67;13.17;;;;;;;-0.27;100.00;147377.88;5125020;27;20073;-70
2022/01/11 08:38:40;;;;;;;28.47;12.27;;;;;;;-0.10;100.00;147421.53;5124171;27;20027;-70
2022/01/11 08:41:06;;;;;;;25.57;10.60;;;;;;;0.40;100.00;147547.25;5124732;27;20038;-71
2022/01/11 08:43:32;;;;;;;26.73;10.23;;;;;;;0.39;100.00;147544.69;5123770;27;20062;-71
2022/01/11 08:45:57;;;;;;;18.77;8.50;;;;;;;0.55;100.00;147585.75;5124451;27;20039;-71
2022/01/11 08:48:23;;;;;;;18.20;8.97;;;;;;;1.20;100.00;147747.53;5115531;27;20027;-71
2022/01/11 08:50:53;;;;;;;17.23;8.03;;;;;;;1.14;100.00;147734.72;5113858;27;20054;-71
2022/01/11 08:53:22;;;;;;;17.63;7.90;;;;;;;1.30;100.00;147774.50;5119429;27;20102;-71
2022/01/11 08:55:49;;;;;;;17.33;7.63;;;;;;;1.74;100.00;147886.31;5122452;27;20528;-71
2022/01/11 08:58:14;;;;;;;14.03;7.10;;;;;;;2.00;100.00;147951.84;5119594;27;20047;-71
2022/01/11 09:00:40;;;;;;;13.57;7.23;;;;;;;2.10;100.00;147975.00;5120746;27;20469;-71
2022/01/11 09:03:06;;;;;;;13.43;6.47;;;;;;;2.72;100.00;148133.16;5120330;27;20097;-71
2022/01/11 09:05:31;;;;;;;12.47;6.70;;;;;;;2.85;100.00;148166.59;5116727;27;20027;-71
2022/01/11 09:07:57;;;;;;;13.10;6.20;;;;;;;1.86;100.00;147914.59;5110222;27;20502;-71
2022/01/11 09:10:22;;;;;;;16.27;6.90;;;;;;;0.57;100.00;147590.88;5122828;27;20107;-71
2022/01/11 09:12:48;;;;;;;18.07;7.60;;;;;;;-0.05;100.00;147433.03;5122636;27;20717;-71
2022/01/11 09:15:14;;;;;;;16.23;7.73;;;;;;;-0.61;100.00;147293.28;5116213;27;20054;-71
2022/01/11 09:17:41;;;;;;;15.60;7.93;;;;;;;-0.76;100.00;147254.78;5123987;27;20105;-70
2022/01/11 09:20:09;;;;;;;16.67;8.43;;;;;;;-0.79;100.00;147245.81;5123082;27;20018;-70
2022/01/11 09:22:38;;;;;;;22.07;9.17;;;;;;;-0.85;100.00;147230.41;5123879;27;20027;-70
2022/01/11 09:25:04;;;;;;;17.40;8.70;;;;;;;-0.93;100.00;147212.50;5122456;27;20023;-70
2022/01/11 09:27:29;;;;;;;21.63;9.43;;;;;;;-0.96;100.00;147203.53;5119466;27;20054;-70
2022/01/11 09:29:55;;;;;;;22.30;9.93;;;;;;;-0.95;100.00;147206.09;5115345;27;20100;-70
2022/01/11 09:32:21;;;;;;;22.37;10.53;;;;;;;-0.94;100.00;147208.66;5123026;27;20031;-70
2022/01/11 09:34:46;;;;;;;24.73;10.00;;;;;;;-0.98;100.00;147199.63;5121674;27;22299;-70
2022/01/11 09:37:13;;;;;;;22.23;10.13;;;;;;;-1.03;100.00;147185.56;5123054;27;20152;-70
2022/01/11 09:39:39;;;;;;;26.40;10.60;;;;;;;-1.04;100.00;147184.28;5122374;27;20022;-70
2022/01/11 09:42:07;;;;;;;29.47;10.33;;;;;;;-1.05;100.00;147180.44;5123106;27;20104;-70
2022/01/11 09:44:38;;;;;;;26.50;10.60;;;;;;;-1.03;100.00;147185.56;5122144;27;20034;-70
2022/01/11 09:47:05;;;;;;;24.58;10.52;;;;;;;-0.98;100.00;147199.63;5121220;27;20031;-70
2022/01/11 09:49:30;;;;;;;28.47;11.27;;;;;;;-0.93;100.00;147211.22;5110280;27;20032;-70
2022/01/11 09:51:56;;;;;;;29.40;11.83;;;;;;;-0.87;100.00;147226.56;5120578;27;20015;-70
2022/01/11 09:54:22;;;;;;;34.43;13.00;;;;;;;-0.82;100.00;147239.41;5115248;27;20031;-70
2022/01/11 09:56:47;;;;;;;35.17;12.53;;;;;;;-0.75;100.00;147256.06;5123218;27;20014;-70
2022/01/11 09:59:14;;;;;;;35.10;12.43;;;;;;;-0.70;100.00;147268.91;5122657;27;20023;-70
2022/01/11 10:01:39;;;;;;;32.77;12.00;;;;;;;-0.68;100.00;147275.31;5122805;27;20621;-70
2022/01/11 10:04:11;;;;;;;31.20;12.83;;;;;;;-0.54;100.00;147309.91;5113295;27;20054;-70
2022/01/11 10:06:41;;;;;;;41.75;13.05;;;;;;;-0.43;100.00;147336.84;5122857;27;20396;-70
2022/01/11 10:09:18;;;;;;;30.83;14.23;;;;;;;-0.40;100.00;147344.53;5120517;27;20039;-70
2022/01/11 10:11:46;;;;;;;29.03;12.07;;;;;;;-0.41;100.00;147341.97;5119240;27;20050;-70
2022/01/11 10:14:18;;;;;;;29.47;12.57;;;;;;;-0.38;100.00;147350.94;5114644;27;20490;-70
2022/01/11 10:16:43;;;;;;;30.00;12.27;;;;;;;-0.36;100.00;147354.84;5122638;27;20072;-70
2022/01/11 10:19:26;;;;;;;33.77;12.53;;;;;;;-0.33;100.00;147362.50;5121423;27;20035;-70
2022/01/11 10:21:54;;;;;;;31.80;13.53;;;;;;;-0.31;100.00;147367.63;5122358;27;20494;-71
2022/01/11 10:24:42;;;;;;;30.70;13.47;;;;;;;-0.22;100.00;147390.72;5117201;27;20383;-70
2022/01/11 10:27:15;;;;;;;35.13;13.43;;;;;;;-0.20;100.00;147394.56;5121941;27;20031;-70
2022/01/11 10:29:43;;;;;;;39.83;13.83;;;;;;;-0.19;100.00;147398.41;5121966;27;20449;-70
2022/01/11 10:32:30;;;;;;;32.67;13.83;;;;;;;-0.14;100.00;147411.22;5122044;27;20110;-71
2022/01/11 10:35:00;;;;;;;34.83;14.67;;;;;;;-0.08;100.00;147426.66;5117990;27;20120;-70
2022/01/11 10:37:34;;;;;;;33.67;14.50;;;;;;;-0.06;100.00;147430.47;5121169;27;20568;-71
2022/01/11 10:40:13;;;;;;;34.70;14.80;;;;;;;-0.02;100.00;147440.72;5119634;27;20691;-71
2022/01/11 10:42:46;;;;;;;32.17;13.10;;;;;;;0.02;100.00;147449.75;5120771;27;20102;-70
2022/01/11 10:45:14;;;;;;;40.20;14.43;;;;;;;0.08;100.00;147465.13;5104627;27;20027;-70
2022/01/11 10:47:43;;;;;;;29.17;12.70;;;;;;;0.10;100.00;147470.25;5114875;27;20027;-70
2022/01/11 10:50:22;;;;;;;34.63;12.63;;;;;;;0.21;100.00;147498.47;5120572;27;20057;-70
2022/01/11 10:52:48;;;;;;;34.37;13.80;;;;;;;0.36;100.00;147535.69;5119689;27;20039;-70
2022/01/11 10:55:21;;;;;;;34.00;13.23;;;;;;;0.38;100.00;147542.13;5120576;27;20022;-70
2022/01/11 10:57:56;;;;;;;36.63;13.50;;;;;;;0.38;100.00;147542.13;5120254;27;20109;-70
2022/01/11 11:00:24;;;;;;;38.73;12.87;;;;;;;0.41;100.00;147549.81;5111196;27;20050;-70
2022/01/11 11:02:56;;;;;;;37.43;13.03;;;;;;;0.49;100.00;147570.38;5120103;27;20035;-70